createdAt,value
2018-10-12T00:00:08.783Z,14.27
2018-10-12T00:02:35.672Z,14.31
2018-10-12T00:05:05.811Z,14.32
2018-10-12T00:07:36.083Z,14.55
2018-10-12T00:10:03.101Z,14.58
2018-10-12T00:12:30.041Z,14.70
2018-10-12T00:15:00.560Z,15.12
2018-10-12T00:17:27.711Z,15.03
2018-10-12T00:19:54.787Z,14.95
2018-10-12T00:22:21.671Z,15.23
2018-10-12T00:24:50.004Z,14.98
2018-10-12T00:27:16.955Z,14.90
2018-10-12T00:29:43.919Z,15.11
2018-10-12T00:32:10.891Z,15.29
2018-10-12T00:34:37.858Z,15.32
2018-10-12T00:37:04.751Z,15.47
2018-10-12T00:39:31.716Z,15.43
2018-10-12T00:41:58.655Z,15.56
2018-10-12T00:44:25.539Z,15.41
2018-10-12T00:46:52.494Z,15.53
2018-10-12T00:49:19.375Z,15.58
2018-10-12T00:51:47.227Z,15.51
2018-10-12T00:54:14.136Z,15.43
2018-10-12T00:56:41.028Z,15.65
2018-10-12T00:59:07.945Z,15.27
2018-10-12T01:01:34.847Z,15.28
2018-10-12T01:04:01.811Z,15.32
2018-10-12T01:06:28.777Z,15.20
2018-10-12T01:08:56.559Z,15.16
2018-10-12T01:11:23.511Z,15.22
2018-10-12T01:13:50.402Z,15.24
2018-10-12T01:16:17.261Z,15.01
2018-10-12T01:18:44.143Z,14.79
2018-10-12T01:21:11.019Z,14.64
2018-10-12T01:23:38.028Z,14.66
2018-10-12T01:26:04.960Z,14.77
2018-10-12T01:28:31.824Z,14.96
2018-10-12T01:30:59.032Z,15.13
2018-10-12T01:33:26.107Z,15.10
2018-10-12T01:35:53.035Z,15.16
2018-10-12T01:38:19.915Z,14.91
2018-10-12T01:40:46.891Z,15.00
2018-10-12T01:43:13.855Z,15.07
2018-10-12T01:45:40.717Z,14.97
2018-10-12T01:48:08.675Z,14.75
2018-10-12T01:50:35.627Z,14.68
2018-10-12T01:53:04.587Z,14.74
2018-10-12T01:55:31.487Z,14.84
2018-10-12T01:57:58.347Z,14.85
2018-10-12T02:00:25.303Z,14.97
2018-10-12T02:02:52.183Z,15.04
2018-10-12T02:05:19.163Z,15.05
2018-10-12T02:07:46.120Z,15.06
2018-10-12T02:10:13.000Z,14.96
2018-10-12T02:12:39.996Z,14.67
2018-10-12T02:15:06.939Z,14.78
2018-10-12T02:17:33.927Z,14.76
2018-10-12T02:20:00.860Z,14.72
2018-10-12T02:22:27.747Z,14.82
2018-10-12T02:24:54.729Z,14.76
2018-10-12T02:27:21.668Z,14.84
2018-10-12T02:29:48.555Z,14.95
2018-10-12T02:32:15.407Z,14.92
2018-10-12T02:34:42.291Z,14.90
2018-10-12T02:37:09.252Z,14.94
2018-10-12T02:39:36.131Z,15.02
2018-10-12T02:42:03.085Z,14.80
2018-10-12T02:44:29.991Z,14.81
2018-10-12T02:46:56.957Z,14.84
2018-10-12T02:49:23.907Z,14.88
2018-10-12T02:51:50.775Z,14.97
2018-10-12T02:54:17.792Z,14.86
2018-10-12T02:56:44.719Z,14.75
2018-10-12T02:59:11.574Z,14.95
2018-10-12T03:01:38.434Z,15.00
2018-10-12T03:04:05.352Z,14.85
2018-10-12T03:06:32.302Z,14.96
2018-10-12T03:08:59.276Z,15.26
2018-10-12T03:11:26.253Z,15.10
2018-10-12T03:13:53.198Z,15.35
2018-10-12T03:16:22.183Z,15.32
2018-10-12T03:18:49.087Z,15.25
2018-10-12T03:21:15.959Z,15.20
2018-10-12T03:23:42.839Z,15.27
2018-10-12T03:26:09.824Z,15.27
2018-10-12T03:28:37.080Z,15.69
2018-10-12T03:31:04.444Z,15.81
2018-10-12T03:33:31.927Z,15.40
2018-10-12T03:35:59.245Z,15.29
2018-10-12T03:38:26.252Z,15.20
2018-10-12T03:40:53.160Z,15.05
2018-10-12T03:43:20.024Z,15.49
2018-10-12T03:45:46.900Z,15.00
2018-10-12T03:48:13.871Z,14.88
2018-10-12T03:50:40.837Z,14.96
2018-10-12T03:53:09.332Z,14.83
2018-10-12T03:55:36.261Z,14.80
2018-10-12T03:58:03.183Z,14.68
2018-10-12T04:00:30.077Z,14.75
2018-10-12T04:02:57.008Z,14.80
2018-10-12T04:05:23.909Z,14.75
2018-10-12T04:07:51.779Z,14.81
2018-10-12T04:10:18.647Z,14.78
2018-10-12T04:12:46.549Z,14.68
2018-10-12T04:15:13.533Z,14.59
2018-10-12T04:17:40.555Z,14.88
2018-10-12T04:20:07.639Z,14.47
2018-10-12T04:22:34.535Z,15.09
2018-10-12T04:25:02.408Z,14.62
2018-10-12T04:27:30.646Z,14.48
2018-10-12T04:29:57.599Z,14.46
2018-10-12T04:32:24.556Z,14.40
2018-10-12T04:34:53.471Z,14.33
2018-10-12T04:37:20.433Z,14.27
2018-10-12T04:40:01.861Z,14.23
2018-10-12T04:42:28.748Z,14.24
2018-10-12T04:44:56.978Z,14.32
2018-10-12T04:47:31.125Z,14.26
2018-10-12T04:49:59.563Z,13.98
2018-10-12T04:52:27.619Z,13.81
2018-10-12T04:54:54.565Z,13.94
2018-10-12T04:57:21.519Z,13.91
2018-10-12T04:59:48.535Z,13.93
2018-10-12T05:02:15.448Z,14.19
2018-10-12T05:04:42.330Z,14.29
2018-10-12T05:07:09.291Z,14.09
2018-10-12T05:09:36.171Z,14.19
2018-10-12T05:12:03.159Z,14.36
2018-10-12T05:14:30.131Z,14.35
2018-10-12T05:16:57.124Z,14.24
2018-10-12T05:19:24.031Z,14.65
2018-10-12T05:21:50.955Z,14.35
2018-10-12T05:24:22.834Z,14.17
2018-10-12T05:26:50.689Z,14.01
2018-10-12T05:29:17.582Z,13.96
2018-10-12T05:31:44.565Z,13.88
2018-10-12T05:34:11.427Z,13.92
2018-10-12T05:36:38.379Z,13.89
2018-10-12T05:39:07.744Z,13.78
2018-10-12T05:41:35.599Z,14.07
2018-10-12T05:44:02.832Z,14.13
2018-10-12T05:46:30.822Z,14.08
2018-10-12T05:49:09.273Z,14.41
2018-10-12T05:51:36.192Z,14.16
2018-10-12T05:54:03.163Z,14.12
2018-10-12T05:56:32.000Z,14.11
2018-10-12T05:58:59.047Z,14.06
2018-10-12T06:01:25.978Z,14.09
2018-10-12T06:03:52.874Z,14.19
2018-10-12T06:06:20.795Z,14.15
2018-10-12T06:08:47.784Z,14.06
2018-10-12T06:11:14.833Z,14.18
2018-10-12T06:13:49.414Z,14.25
2018-10-12T06:16:16.342Z,14.27
2018-10-12T06:18:43.211Z,14.38
2018-10-12T06:21:10.211Z,14.43
2018-10-12T06:23:37.214Z,14.45
2018-10-12T06:26:04.657Z,14.46
2018-10-12T06:28:31.604Z,14.51
2018-10-12T06:30:58.594Z,14.57
2018-10-12T06:33:26.459Z,14.74
2018-10-12T06:35:53.304Z,14.88
2018-10-12T06:38:20.196Z,14.92
2018-10-12T06:40:47.251Z,15.03
2018-10-12T06:43:14.086Z,15.17
2018-10-12T06:45:41.023Z,15.17
2018-10-12T06:48:07.958Z,15.67
2018-10-12T06:50:39.384Z,15.85
2018-10-12T06:53:06.764Z,15.40
2018-10-12T06:55:43.326Z,15.25
2018-10-12T06:58:13.887Z,15.24
2018-10-12T07:00:40.905Z,15.23
2018-10-12T07:03:07.905Z,15.18
2018-10-12T07:05:38.150Z,15.24
2018-10-12T07:08:05.012Z,15.67
2018-10-12T07:10:32.840Z,15.36
2018-10-12T07:13:00.815Z,15.97
2018-10-12T07:15:28.735Z,15.63
2018-10-12T07:17:55.608Z,15.63
2018-10-12T07:20:24.531Z,15.58
2018-10-12T07:22:51.552Z,15.52
2018-10-12T07:25:18.490Z,15.68
2018-10-12T07:27:45.442Z,15.77
2018-10-12T07:30:12.412Z,15.77
2018-10-12T07:32:40.328Z,15.79
2018-10-12T07:35:07.299Z,16.00
2018-10-12T07:37:34.301Z,16.06
2018-10-12T07:40:01.218Z,16.26
2018-10-12T07:42:28.129Z,16.34
2018-10-12T07:44:55.057Z,16.41
2018-10-12T07:47:22.001Z,16.55
2018-10-12T07:49:49.187Z,16.59
2018-10-12T07:52:16.099Z,16.82
2018-10-12T07:54:43.067Z,16.96
2018-10-12T07:57:10.633Z,17.18
2018-10-12T07:59:38.079Z,17.32
2018-10-12T08:02:06.604Z,17.44
2018-10-12T08:04:35.744Z,17.74
2018-10-12T08:07:02.895Z,17.86
2018-10-12T08:09:30.100Z,17.99
2018-10-12T08:12:00.127Z,17.98
2018-10-12T08:14:27.132Z,18.53
2018-10-12T08:16:55.120Z,18.92
2018-10-12T08:19:22.067Z,18.60
2018-10-12T08:21:51.008Z,18.66
2018-10-12T08:24:17.958Z,18.84
2018-10-12T08:26:46.916Z,18.94
2018-10-12T08:29:13.890Z,18.98
2018-10-12T08:31:40.847Z,19.01
2018-10-12T08:34:08.711Z,19.27
2018-10-12T08:36:36.888Z,19.44
2018-10-12T08:39:06.979Z,19.58
2018-10-12T08:41:44.279Z,19.83
2018-10-12T08:44:11.139Z,19.88
2018-10-12T08:46:38.103Z,20.04
2018-10-12T08:49:05.996Z,20.23
2018-10-12T08:51:33.480Z,19.89
2018-10-12T08:54:01.396Z,20.34
2018-10-12T08:56:28.438Z,20.53
2018-10-12T08:58:56.336Z,20.56
2018-10-12T09:01:23.215Z,20.82
2018-10-12T09:03:50.215Z,20.63
2018-10-12T09:06:17.159Z,20.36
2018-10-12T09:08:44.220Z,20.94
2018-10-12T09:11:11.092Z,21.02
2018-10-12T09:13:41.161Z,21.23
2018-10-12T09:16:08.201Z,21.52
2018-10-12T09:18:35.216Z,21.29
2018-10-12T09:21:02.206Z,21.30
2018-10-12T09:23:29.339Z,21.77
2018-10-12T09:25:56.291Z,21.97
2018-10-12T09:28:24.186Z,21.94
2018-10-12T09:30:51.097Z,21.96
2018-10-12T09:33:18.022Z,22.15
2018-10-12T09:35:44.980Z,21.75
2018-10-12T09:38:11.873Z,22.55
2018-10-12T09:40:38.892Z,22.43
2018-10-12T09:43:07.113Z,22.93
2018-10-12T09:45:34.167Z,23.49
2018-10-12T09:48:01.224Z,22.92
2018-10-12T09:50:28.314Z,22.05
2018-10-12T09:52:55.164Z,22.61
2018-10-12T09:55:23.143Z,22.44
2018-10-12T09:57:50.091Z,22.43
2018-10-12T10:00:23.103Z,22.86
2018-10-12T10:02:55.774Z,22.93
2018-10-12T10:05:22.703Z,23.45
2018-10-12T10:07:49.791Z,23.21
2018-10-12T10:10:16.614Z,23.89
2018-10-12T10:12:43.531Z,23.97
2018-10-12T10:15:10.394Z,23.24
2018-10-12T10:17:37.400Z,23.83
2018-10-12T10:20:05.496Z,24.25
2018-10-12T10:22:32.391Z,24.48
2018-10-12T10:24:59.316Z,24.90
2018-10-12T10:27:27.255Z,24.39
2018-10-12T10:29:54.131Z,24.15
2018-10-12T10:32:21.173Z,24.23
2018-10-12T10:34:48.096Z,24.39
2018-10-12T10:37:15.065Z,23.59
2018-10-12T10:39:42.012Z,24.06
2018-10-12T10:42:08.908Z,24.56
2018-10-12T10:44:35.987Z,24.63
2018-10-12T10:47:02.981Z,24.24
2018-10-12T10:49:29.875Z,23.89
2018-10-12T10:52:00.479Z,24.12
2018-10-12T10:54:27.466Z,23.89
2018-10-12T10:57:01.049Z,24.14
2018-10-12T10:59:28.146Z,24.84
2018-10-12T11:01:55.107Z,25.10
2018-10-12T11:04:21.960Z,25.41
2018-10-12T11:06:48.854Z,25.48
2018-10-12T11:09:15.799Z,25.58
2018-10-12T11:11:42.683Z,25.50
2018-10-12T11:14:10.572Z,25.60
2018-10-12T11:16:37.669Z,25.61
2018-10-12T11:19:04.647Z,25.83
2018-10-12T11:21:31.607Z,25.67
2018-10-12T11:23:58.559Z,25.74
2018-10-12T11:26:25.616Z,25.70
2018-10-12T11:28:52.502Z,25.31
2018-10-12T11:31:31.041Z,25.48
2018-10-12T11:34:00.077Z,25.49
2018-10-12T11:36:27.594Z,25.65
2018-10-12T11:38:54.535Z,25.93
2018-10-12T11:41:21.491Z,25.58
2018-10-12T11:43:55.527Z,25.71
2018-10-12T11:46:23.463Z,25.65
2018-10-12T11:48:50.415Z,25.23
2018-10-12T11:51:17.667Z,25.65
2018-10-12T11:53:44.592Z,25.63
2018-10-12T11:56:11.500Z,25.79
2018-10-12T11:58:38.376Z,25.90
2018-10-12T12:01:05.751Z,25.97
2018-10-12T12:03:32.625Z,25.83
2018-10-12T12:06:00.616Z,25.82
2018-10-12T12:08:28.539Z,25.67
2018-10-12T12:10:55.466Z,25.85
2018-10-12T12:13:22.404Z,25.95
2018-10-12T12:15:49.319Z,26.20
2018-10-12T12:18:17.204Z,26.30
2018-10-12T12:20:44.079Z,26.52
2018-10-12T12:23:12.986Z,26.22
2018-10-12T12:25:40.919Z,26.46
2018-10-12T12:28:07.815Z,26.37
2018-10-12T12:30:34.710Z,26.59
2018-10-12T12:33:04.675Z,26.61
2018-10-12T12:35:31.819Z,26.57
2018-10-12T12:37:59.948Z,26.68
2018-10-12T12:40:26.822Z,26.15
2018-10-12T12:42:53.708Z,26.21
2018-10-12T12:45:20.572Z,25.90
2018-10-12T12:47:57.905Z,25.83
2018-10-12T12:50:24.741Z,25.98
2018-10-12T12:52:51.707Z,26.07
2018-10-12T12:55:18.659Z,26.24
2018-10-12T12:57:45.531Z,26.53
2018-10-12T13:00:12.501Z,26.51
2018-10-12T13:02:39.412Z,26.66
2018-10-12T13:05:06.399Z,26.51
2018-10-12T13:07:33.400Z,26.70
2018-10-12T13:10:00.307Z,26.73
2018-10-12T13:12:27.276Z,26.50
2018-10-12T13:14:54.235Z,26.52
2018-10-12T13:17:22.140Z,26.60
2018-10-12T13:19:49.126Z,26.86
2018-10-12T13:22:16.082Z,26.85
2018-10-12T13:24:42.987Z,27.09
2018-10-12T13:27:10.262Z,26.77
2018-10-12T13:29:37.171Z,26.77
2018-10-12T13:32:04.112Z,26.72
2018-10-12T13:34:31.062Z,26.97
2018-10-12T13:36:57.983Z,26.95
2018-10-12T13:39:25.015Z,27.06
2018-10-12T13:41:51.908Z,27.21
2018-10-12T13:44:18.821Z,27.25
2018-10-12T13:46:45.842Z,27.23
2018-10-12T13:49:12.639Z,27.28
2018-10-12T13:51:39.615Z,27.28
2018-10-12T13:54:06.632Z,27.06
2018-10-12T13:56:33.576Z,27.14
2018-10-12T13:59:00.605Z,27.11
2018-10-12T14:01:27.561Z,27.33
2018-10-12T14:03:57.819Z,27.26
2018-10-12T14:06:24.752Z,26.90
2018-10-12T14:09:01.360Z,26.87
2018-10-12T14:11:30.391Z,27.00
2018-10-12T14:13:57.401Z,26.96
2018-10-12T14:16:24.340Z,27.28
2018-10-12T14:18:51.464Z,27.23
2018-10-12T14:21:18.242Z,27.17
2018-10-12T14:23:45.183Z,27.25
2018-10-12T14:26:12.159Z,27.15
2018-10-12T14:28:39.147Z,27.14
2018-10-12T14:31:06.129Z,27.06
2018-10-12T14:33:33.073Z,26.87
2018-10-12T14:36:00.163Z,27.03
2018-10-12T14:38:27.138Z,27.20
2018-10-12T14:40:54.074Z,27.38
2018-10-12T14:43:21.048Z,27.32
2018-10-12T14:45:48.245Z,27.40
2018-10-12T14:48:16.188Z,27.36
2018-10-12T14:50:44.146Z,27.17
2018-10-12T14:53:11.224Z,27.42
2018-10-12T14:55:38.081Z,27.08
2018-10-12T14:58:05.110Z,27.32
2018-10-12T15:00:32.011Z,27.20
2018-10-12T15:02:59.049Z,26.99
2018-10-12T15:05:27.008Z,26.73
2018-10-12T15:07:57.008Z,26.62
2018-10-12T15:10:24.042Z,26.69
2018-10-12T15:12:50.968Z,26.51
2018-10-12T15:15:22.646Z,26.66
2018-10-12T15:17:51.574Z,26.52
2018-10-12T15:20:19.995Z,26.58
2018-10-12T15:22:46.947Z,26.58
2018-10-12T15:25:18.001Z,26.41
2018-10-12T15:27:45.140Z,26.41
2018-10-12T15:30:12.550Z,26.36
2018-10-12T15:32:39.666Z,26.44
2018-10-12T15:35:07.642Z,26.36
2018-10-12T15:37:34.561Z,26.73
2018-10-12T15:40:03.528Z,26.07
2018-10-12T15:42:30.482Z,26.11
2018-10-12T15:44:57.468Z,25.92
2018-10-12T15:47:24.481Z,25.86
2018-10-12T15:49:51.643Z,25.66
2018-10-12T15:52:18.575Z,25.54
2018-10-12T15:54:45.663Z,25.40
2018-10-12T15:57:17.043Z,25.36
2018-10-12T15:59:45.235Z,25.31
2018-10-12T16:02:12.145Z,25.29
2018-10-12T16:04:43.160Z,25.21
2018-10-12T16:07:10.164Z,25.17
2018-10-12T16:09:39.204Z,25.04
2018-10-12T16:12:06.147Z,24.97
2018-10-12T16:14:36.402Z,24.71
2018-10-12T16:17:03.324Z,24.63
2018-10-12T16:19:30.294Z,24.49
2018-10-12T16:21:58.227Z,24.41
2018-10-12T16:24:26.259Z,24.30
2018-10-12T16:26:53.157Z,24.87
2018-10-12T16:29:20.164Z,23.99
2018-10-12T16:31:48.132Z,23.63
2018-10-12T16:34:15.090Z,23.50
2018-10-12T16:36:42.105Z,23.45
2018-10-12T16:39:09.738Z,23.37
2018-10-12T16:41:37.208Z,23.43
2018-10-12T16:44:04.148Z,23.22
2018-10-12T16:46:31.019Z,23.05
2018-10-12T16:49:00.126Z,23.76
2018-10-12T16:51:26.951Z,22.95
2018-10-12T16:53:53.960Z,22.45
2018-10-12T16:56:22.864Z,22.11
2018-10-12T16:58:49.808Z,22.01
2018-10-12T17:01:16.787Z,22.94
2018-10-12T17:03:43.763Z,22.13
2018-10-12T17:06:10.728Z,22.01
2018-10-12T17:08:37.753Z,22.00
2018-10-12T17:11:05.853Z,21.88
2018-10-12T17:13:34.874Z,21.68
2018-10-12T17:16:01.879Z,21.52
2018-10-12T17:18:28.873Z,22.24
2018-10-12T17:20:57.674Z,21.23
2018-10-12T17:23:24.593Z,21.33
2018-10-12T17:25:51.501Z,20.48
2018-10-12T17:28:18.366Z,20.20
2018-10-12T17:30:48.954Z,20.20
2018-10-12T17:33:15.903Z,20.13
2018-10-12T17:35:49.941Z,20.19
2018-10-12T17:38:16.907Z,20.19
2018-10-12T17:40:43.907Z,20.17
2018-10-12T17:43:14.126Z,20.13
2018-10-12T17:45:45.569Z,20.01
2018-10-12T17:48:15.963Z,19.85
2018-10-12T17:50:42.987Z,19.75
2018-10-12T17:53:09.929Z,19.75
2018-10-12T17:55:45.021Z,19.70
2018-10-12T17:58:22.887Z,19.36
2018-10-12T18:00:49.858Z,18.97
2018-10-12T18:03:16.876Z,18.57
2018-10-12T18:05:43.798Z,18.52
2018-10-12T18:08:10.689Z,18.56
2018-10-12T18:10:37.678Z,18.78
2018-10-12T18:13:04.545Z,18.50
2018-10-12T18:15:31.488Z,18.61
2018-10-12T18:18:00.737Z,18.84
2018-10-12T18:20:27.664Z,19.02
2018-10-12T18:22:55.597Z,19.16
2018-10-12T18:25:23.579Z,19.08
2018-10-12T18:27:50.535Z,19.07
2018-10-12T18:30:17.519Z,19.15
2018-10-12T18:32:44.479Z,19.16
2018-10-12T18:35:12.544Z,19.36
2018-10-12T18:37:39.542Z,19.34
2018-10-12T18:40:06.604Z,19.49
2018-10-12T18:42:33.486Z,19.36
2018-10-12T18:45:03.914Z,19.18
2018-10-12T18:47:31.847Z,18.89
2018-10-12T18:49:58.817Z,18.78
2018-10-12T18:52:26.251Z,18.63
2018-10-12T18:54:53.173Z,18.54
2018-10-12T18:57:20.118Z,18.50
2018-10-12T18:59:54.574Z,18.53
2018-10-12T19:02:21.439Z,18.56
2018-10-12T19:04:49.563Z,18.47
2018-10-12T19:07:16.503Z,18.22
2018-10-12T19:09:43.523Z,18.22
2018-10-12T19:12:10.571Z,18.23
2018-10-12T19:14:37.511Z,17.82
2018-10-12T19:17:06.911Z,17.57
2018-10-12T19:19:35.928Z,17.27
2018-10-12T19:22:10.127Z,18.30
2018-10-12T19:24:37.014Z,18.28
2018-10-12T19:27:03.947Z,17.93
2018-10-12T19:29:30.923Z,17.73
2018-10-12T19:31:57.942Z,17.85
2018-10-12T19:34:24.875Z,17.95
2018-10-12T19:36:51.938Z,18.08
2018-10-12T19:39:19.017Z,18.19
2018-10-12T19:41:46.016Z,18.24
2018-10-12T19:44:12.960Z,18.24
2018-10-12T19:46:39.984Z,18.37
2018-10-12T19:49:06.914Z,18.37
2018-10-12T19:51:33.855Z,18.30
2018-10-12T19:54:01.728Z,18.15
2018-10-12T19:56:29.635Z,18.27
2018-10-12T19:58:56.516Z,18.07
2018-10-12T20:01:23.375Z,18.68
2018-10-12T20:03:50.309Z,17.99
2018-10-12T20:06:24.486Z,17.59
2018-10-12T20:09:00.493Z,17.21
2018-10-12T20:11:27.609Z,16.91
2018-10-12T20:13:54.610Z,16.73
2018-10-12T20:16:21.558Z,16.92
2018-10-12T20:18:48.414Z,17.00
2018-10-12T20:21:15.333Z,17.09
2018-10-12T20:23:42.341Z,16.90
2018-10-12T20:26:12.860Z,16.69
2018-10-12T20:28:39.813Z,16.22
2018-10-12T20:31:07.302Z,16.34
2018-10-12T20:33:34.231Z,16.53
2018-10-12T20:36:01.200Z,16.46
2018-10-12T20:38:28.203Z,16.54
2018-10-12T20:40:56.899Z,16.52
2018-10-12T20:43:23.873Z,16.40
2018-10-12T20:45:50.828Z,16.07
2018-10-12T20:48:17.938Z,16.20
2018-10-12T20:50:45.890Z,16.26
2018-10-12T20:53:12.861Z,16.23
2018-10-12T20:55:39.852Z,16.23
2018-10-12T20:58:16.267Z,16.29
2018-10-12T21:00:44.352Z,16.92
2018-10-12T21:03:11.259Z,16.15
2018-10-12T21:05:38.222Z,15.97
2018-10-12T21:08:05.250Z,15.92
2018-10-12T21:10:32.146Z,15.95
2018-10-12T21:12:59.147Z,15.95
2018-10-12T21:15:26.091Z,15.93
2018-10-12T21:17:53.048Z,16.81
2018-10-12T21:20:20.860Z,15.98
2018-10-12T21:22:47.826Z,15.81
2018-10-12T21:25:14.878Z,15.83
2018-10-12T21:27:42.829Z,15.72
2018-10-12T21:30:09.775Z,15.78
2018-10-12T21:32:36.764Z,15.84
2018-10-12T21:35:03.803Z,15.81
2018-10-12T21:37:30.700Z,15.81
2018-10-12T21:39:57.703Z,15.70
2018-10-12T21:42:24.605Z,15.67
2018-10-12T21:44:51.683Z,15.66
2018-10-12T21:47:18.551Z,15.65
2018-10-12T21:49:45.456Z,15.68
2018-10-12T21:52:12.404Z,15.55
2018-10-12T21:54:39.479Z,15.75
2018-10-12T21:57:06.551Z,15.59
2018-10-12T21:59:33.563Z,15.56
2018-10-12T22:02:00.535Z,15.33
2018-10-12T22:04:27.409Z,15.32
2018-10-12T22:06:54.316Z,15.19
2018-10-12T22:09:21.183Z,15.21
2018-10-12T22:11:50.155Z,15.17
2018-10-12T22:14:17.043Z,15.11
2018-10-12T22:16:43.959Z,15.10
2018-10-12T22:19:10.997Z,15.84
2018-10-12T22:21:37.899Z,14.96
2018-10-12T22:24:04.923Z,15.60
2018-10-12T22:26:31.783Z,15.03
2018-10-12T22:28:58.755Z,14.69
2018-10-12T22:31:27.619Z,14.47
2018-10-12T22:33:54.587Z,14.63
2018-10-12T22:36:21.603Z,14.29
2018-10-12T22:38:50.474Z,14.28
2018-10-12T22:41:21.019Z,14.04
2018-10-12T22:43:47.904Z,13.99
2018-10-12T22:46:15.819Z,14.16
2018-10-12T22:48:42.769Z,14.11
2018-10-12T22:51:12.865Z,14.27
2018-10-12T22:53:39.729Z,14.16
2018-10-12T22:56:06.607Z,14.19
2018-10-12T22:58:33.522Z,14.28
2018-10-12T23:01:00.483Z,15.11
2018-10-12T23:03:27.443Z,15.40
2018-10-12T23:05:54.320Z,14.83
2018-10-12T23:08:21.316Z,14.78
2018-10-12T23:10:48.287Z,14.63
2018-10-12T23:13:16.311Z,14.35
2018-10-12T23:15:44.240Z,14.45
2018-10-12T23:18:11.265Z,14.48
2018-10-12T23:20:38.128Z,14.50
2018-10-12T23:23:06.979Z,14.41
2018-10-12T23:25:33.911Z,14.12
2018-10-12T23:28:02.015Z,14.79
2018-10-12T23:30:28.955Z,14.38
2018-10-12T23:33:07.531Z,14.39
2018-10-12T23:35:38.023Z,14.40
2018-10-12T23:38:04.927Z,14.04
2018-10-12T23:40:31.895Z,13.93
2018-10-12T23:42:58.904Z,13.95
2018-10-12T23:45:25.760Z,14.02
2018-10-12T23:47:52.698Z,13.92
2018-10-12T23:50:26.740Z,13.62
2018-10-12T23:52:53.699Z,13.54
2018-10-12T23:55:21.563Z,13.73
2018-10-12T23:57:52.152Z,13.74
